createdAt,value
2022-07-28T00:01:50.207Z,14.92
2022-07-28T00:04:18.259Z,14.90
2022-07-28T00:06:46.319Z,14.88
2022-07-28T00:09:14.594Z,14.85
2022-07-28T00:11:54.425Z,14.85
2022-07-28T00:14:24.355Z,14.82
2022-07-28T00:16:52.659Z,14.79
2022-07-28T00:19:20.835Z,14.74
2022-07-28T00:21:48.920Z,14.72
2022-07-28T00:24:17.342Z,14.70
2022-07-28T00:26:46.785Z,14.71
2022-07-28T00:29:15.243Z,14.73
2022-07-28T00:31:43.433Z,14.73
2022-07-28T00:34:12.595Z,14.75
2022-07-28T00:36:41.106Z,14.74
2022-07-28T00:39:09.390Z,14.71
2022-07-28T00:41:37.515Z,14.68
2022-07-28T00:44:08.023Z,14.61
2022-07-28T00:46:36.971Z,14.53
2022-07-28T00:49:05.949Z,14.45
2022-07-28T00:51:34.430Z,14.42
2022-07-28T00:54:04.519Z,14.36
2022-07-28T00:56:34.672Z,14.32
2022-07-28T00:59:02.697Z,14.28
2022-07-28T01:01:30.726Z,14.25
2022-07-28T01:04:02.347Z,14.24
2022-07-28T01:07:03.424Z,14.23
2022-07-28T01:09:50.039Z,14.18
2022-07-28T01:12:57.033Z,14.11
2022-07-28T01:15:33.574Z,14.03
2022-07-28T01:18:17.226Z,14.00
2022-07-28T01:20:55.559Z,13.94
2022-07-28T01:23:32.257Z,13.87
2022-07-28T01:26:24.336Z,13.81
2022-07-28T01:29:16.522Z,13.75
2022-07-28T01:32:08.755Z,13.67
2022-07-28T01:34:52.309Z,13.60
2022-07-28T01:37:25.856Z,13.53
2022-07-28T01:39:59.166Z,13.46
2022-07-28T01:42:37.262Z,13.38
2022-07-28T01:45:08.340Z,13.31
2022-07-28T01:47:37.731Z,13.25
2022-07-28T01:50:10.471Z,13.19
2022-07-28T01:52:42.050Z,13.13
2022-07-28T01:55:14.031Z,13.10
2022-07-28T01:57:44.475Z,13.07
2022-07-28T02:00:14.339Z,13.00
2022-07-28T02:02:46.286Z,12.92
2022-07-28T02:05:19.285Z,12.85
2022-07-28T02:07:51.631Z,12.77
2022-07-28T02:10:22.074Z,12.71
2022-07-28T02:12:53.328Z,12.63
2022-07-28T02:15:22.545Z,12.60
2022-07-28T02:17:53.756Z,12.58
2022-07-28T02:20:23.630Z,12.56
2022-07-28T02:22:54.460Z,12.52
2022-07-28T02:25:22.704Z,12.49
2022-07-28T02:28:05.611Z,12.44
2022-07-28T02:30:48.160Z,12.37
2022-07-28T02:33:57.963Z,12.35
2022-07-28T02:36:16.199Z,12.32
2022-07-28T02:38:51.967Z,12.30
2022-07-28T02:41:27.509Z,12.24
2022-07-28T02:44:00.158Z,12.15
2022-07-28T02:46:38.434Z,12.09
2022-07-28T02:49:12.501Z,12.04
2022-07-28T02:51:43.416Z,12.02
2022-07-28T02:54:13.710Z,12.00
2022-07-28T02:56:42.457Z,11.96
2022-07-28T02:59:23.735Z,11.93
2022-07-28T03:01:53.132Z,11.93
2022-07-28T03:04:43.515Z,11.92
2022-07-28T03:07:11.873Z,11.91
2022-07-28T03:09:42.576Z,11.90
2022-07-28T03:12:11.667Z,11.88
2022-07-28T03:14:40.250Z,11.88
2022-07-28T03:17:09.457Z,11.90
2022-07-28T03:19:37.636Z,11.88
2022-07-28T03:22:10.370Z,11.91
2022-07-28T03:24:44.584Z,11.98
2022-07-28T03:27:33.295Z,12.05
2022-07-28T03:30:07.259Z,12.10
2022-07-28T03:32:38.767Z,12.13
2022-07-28T03:35:07.186Z,12.19
2022-07-28T03:38:06.399Z,12.27
2022-07-28T03:40:37.954Z,12.34
2022-07-28T03:43:08.918Z,12.38
2022-07-28T03:45:41.081Z,12.42
2022-07-28T03:48:10.404Z,12.49
2022-07-28T03:50:38.475Z,12.58
2022-07-28T03:53:14.077Z,12.64
2022-07-28T03:55:42.156Z,12.71
2022-07-28T03:58:10.116Z,12.78
2022-07-28T04:00:38.179Z,12.87
2022-07-28T04:03:42.322Z,12.96
2022-07-28T04:05:58.028Z,13.04
2022-07-28T04:08:26.038Z,13.11
2022-07-28T04:10:53.991Z,13.20
2022-07-28T04:13:22.005Z,13.27
2022-07-28T04:15:50.037Z,13.35
2022-07-28T04:18:18.821Z,13.43
2022-07-28T04:20:46.937Z,13.52
2022-07-28T04:23:14.799Z,13.61
2022-07-28T04:25:42.906Z,13.72
2022-07-28T04:28:10.970Z,13.83
2022-07-28T04:30:43.896Z,13.95
2022-07-28T04:33:13.032Z,14.09
2022-07-28T04:35:41.055Z,14.22
2022-07-28T04:38:09.183Z,14.34
2022-07-28T04:40:37.274Z,14.47
2022-07-28T04:43:06.217Z,14.59
2022-07-28T04:45:34.572Z,14.72
2022-07-28T04:48:02.891Z,14.84
2022-07-28T04:50:30.967Z,14.96
2022-07-28T04:52:59.529Z,15.08
2022-07-28T04:55:27.751Z,15.19
2022-07-28T04:57:55.851Z,15.31
2022-07-28T05:00:24.018Z,15.44
2022-07-28T05:05:44.076Z,15.72
2022-07-28T05:08:17.082Z,15.84
2022-07-28T05:10:46.001Z,15.98
2022-07-28T05:13:13.927Z,16.14
2022-07-28T05:15:49.784Z,16.26
2022-07-28T05:18:17.839Z,16.43
2022-07-28T05:20:45.758Z,16.61
2022-07-28T05:23:13.672Z,16.77
2022-07-28T05:25:41.591Z,16.92
2022-07-28T05:28:09.592Z,17.11
2022-07-28T05:30:38.565Z,17.27
2022-07-28T05:33:06.449Z,17.42
2022-07-28T05:35:34.452Z,17.57
2022-07-28T05:38:03.670Z,17.72
2022-07-28T05:40:33.645Z,17.86
2022-07-28T05:43:01.587Z,18.09
2022-07-28T05:45:29.688Z,18.31
2022-07-28T05:47:57.593Z,18.69
2022-07-28T05:50:26.695Z,19.44
2022-07-28T05:52:54.778Z,20.27
2022-07-28T05:55:22.943Z,20.97
2022-07-28T05:57:51.329Z,21.63
2022-07-28T06:00:21.247Z,22.06
2022-07-28T06:02:50.697Z,22.43
2022-07-28T06:05:21.606Z,22.61
2022-07-28T06:07:51.804Z,22.68
2022-07-28T06:10:25.372Z,23.12
2022-07-28T06:12:55.346Z,23.45
2022-07-28T06:15:25.919Z,23.84
2022-07-28T06:17:58.206Z,24.17
2022-07-28T06:20:28.874Z,24.12
2022-07-28T06:22:56.851Z,24.19
2022-07-28T06:25:27.736Z,24.29
2022-07-28T06:27:57.817Z,24.49
2022-07-28T06:30:27.432Z,24.77
2022-07-28T06:32:56.765Z,24.80
2022-07-28T06:35:27.944Z,24.60
2022-07-28T06:37:56.071Z,24.25
2022-07-28T06:40:24.721Z,24.36
2022-07-28T06:42:52.697Z,24.47
2022-07-28T06:45:21.806Z,24.60
2022-07-28T06:47:50.946Z,24.68
2022-07-28T06:50:26.510Z,24.91
2022-07-28T06:52:59.106Z,24.99
2022-07-28T06:55:31.325Z,24.37
2022-07-28T06:58:06.371Z,23.94
2022-07-28T07:00:34.604Z,24.40
2022-07-28T07:03:09.616Z,24.79
2022-07-28T07:05:40.662Z,25.32
2022-07-28T07:08:08.682Z,25.48
2022-07-28T07:10:36.670Z,25.16
2022-07-28T07:13:05.059Z,24.95
2022-07-28T07:15:34.959Z,24.94
2022-07-28T07:18:07.709Z,25.41
2022-07-28T07:20:36.480Z,25.40
2022-07-28T07:23:07.619Z,25.21
2022-07-28T07:25:41.533Z,25.74
2022-07-28T07:28:11.967Z,26.26
2022-07-28T07:30:40.316Z,26.14
2022-07-28T07:33:10.906Z,25.91
2022-07-28T07:35:39.101Z,26.12
2022-07-28T07:38:07.466Z,26.61
2022-07-28T07:40:35.750Z,26.98
2022-07-28T07:43:04.700Z,27.45
2022-07-28T07:45:34.517Z,27.26
2022-07-28T07:48:03.909Z,27.25
2022-07-28T07:50:38.906Z,27.59
2022-07-28T07:53:07.156Z,28.06
2022-07-28T07:55:37.961Z,28.50
2022-07-28T07:58:06.546Z,28.61
2022-07-28T08:00:34.675Z,28.16
2022-07-28T08:03:02.835Z,27.06
2022-07-28T08:05:35.511Z,27.19
2022-07-28T08:08:05.687Z,27.54
2022-07-28T08:10:37.921Z,28.19
2022-07-28T08:13:08.001Z,28.68
2022-07-28T08:15:36.057Z,29.07
2022-07-28T08:18:04.890Z,29.01
2022-07-28T08:20:32.989Z,28.98
2022-07-28T08:23:01.371Z,28.85
2022-07-28T08:25:29.290Z,28.78
2022-07-28T08:27:57.238Z,28.86
2022-07-28T08:30:30.265Z,28.76
2022-07-28T08:33:02.534Z,28.31
2022-07-28T08:35:33.501Z,27.91
2022-07-28T08:38:04.597Z,27.71
2022-07-28T08:40:32.995Z,27.54
2022-07-28T08:43:21.217Z,28.64
2022-07-28T08:45:52.504Z,29.69
2022-07-28T08:48:23.730Z,29.54
2022-07-28T08:50:54.088Z,30.16
2022-07-28T08:53:30.697Z,30.47
2022-07-28T08:56:05.851Z,30.00
2022-07-28T08:58:36.802Z,30.32
2022-07-28T09:01:08.645Z,30.09
2022-07-28T09:03:39.277Z,29.72
2022-07-28T09:06:08.470Z,29.06
2022-07-28T09:08:37.340Z,29.28
2022-07-28T09:11:07.027Z,29.50
2022-07-28T09:13:36.545Z,30.28
2022-07-28T09:16:06.923Z,31.08
2022-07-28T09:18:35.208Z,32.14
2022-07-28T09:21:03.221Z,31.31
2022-07-28T09:23:48.944Z,30.20
2022-07-28T09:26:18.661Z,30.81
2022-07-28T09:28:59.279Z,31.48
2022-07-28T09:31:29.408Z,30.78
2022-07-28T09:34:02.654Z,28.77
2022-07-28T09:36:39.202Z,27.22
2022-07-28T09:39:08.403Z,27.75
2022-07-28T09:41:53.386Z,29.48
2022-07-28T09:44:23.375Z,30.54
2022-07-28T09:46:51.512Z,30.46
2022-07-28T09:49:22.887Z,30.04
2022-07-28T09:52:02.750Z,30.81
2022-07-28T09:54:30.756Z,31.69
2022-07-28T09:56:59.416Z,31.54
2022-07-28T09:59:46.194Z,31.27
2022-07-28T10:02:24.960Z,30.89
2022-07-28T10:04:54.629Z,31.46
2022-07-28T10:07:22.775Z,31.35
2022-07-28T10:10:01.016Z,31.18
2022-07-28T10:12:31.599Z,31.36
2022-07-28T10:15:34.839Z,32.46
2022-07-28T10:18:03.728Z,33.16
2022-07-28T10:20:34.760Z,33.19
2022-07-28T10:23:09.566Z,33.61
2022-07-28T10:25:40.597Z,33.67
2022-07-28T10:28:12.069Z,34.20
2022-07-28T10:30:41.448Z,35.07
2022-07-28T10:33:15.186Z,35.42
2022-07-28T10:35:54.769Z,35.36
2022-07-28T10:38:28.806Z,35.87
2022-07-28T10:40:59.821Z,36.57
2022-07-28T10:43:32.849Z,37.36
2022-07-28T10:46:06.833Z,37.40
2022-07-28T10:48:39.251Z,35.52
2022-07-28T10:51:07.672Z,33.92
2022-07-28T10:53:39.512Z,34.99
2022-07-28T10:56:18.869Z,35.80
2022-07-28T10:59:04.696Z,35.03
2022-07-28T11:01:51.913Z,34.25
2022-07-28T11:04:52.023Z,35.21
2022-07-28T11:07:21.177Z,35.47
2022-07-28T11:09:50.135Z,35.12
2022-07-28T11:12:48.885Z,34.88
2022-07-28T11:15:38.101Z,34.23
2022-07-28T11:18:10.840Z,32.43
2022-07-28T11:20:51.625Z,33.10
2022-07-28T11:23:58.369Z,35.61
2022-07-28T11:26:31.102Z,37.77
2022-07-28T11:29:06.016Z,38.18
2022-07-28T11:31:48.784Z,38.12
2022-07-28T11:34:23.707Z,38.25
2022-07-28T11:37:01.621Z,37.81
2022-07-28T11:39:43.867Z,37.62
2022-07-28T11:42:29.481Z,35.47
2022-07-28T11:45:23.125Z,34.22
2022-07-28T11:48:17.103Z,35.92
2022-07-28T11:51:14.328Z,37.56
2022-07-28T11:53:48.494Z,36.70
2022-07-28T11:56:24.472Z,35.23
2022-07-28T11:59:07.230Z,35.12
2022-07-28T12:01:37.094Z,36.20
2022-07-28T12:04:19.099Z,37.07
2022-07-28T12:06:51.660Z,37.78
2022-07-28T12:09:25.617Z,37.33
2022-07-28T12:11:56.098Z,37.74
2022-07-28T12:14:24.401Z,38.87
2022-07-28T12:16:53.263Z,38.38
2022-07-28T12:19:21.879Z,36.97
2022-07-28T12:21:55.354Z,37.05
2022-07-28T12:24:29.617Z,37.61
2022-07-28T12:27:00.564Z,39.13
2022-07-28T12:29:32.219Z,40.02
2022-07-28T12:32:06.722Z,39.36
2022-07-28T12:34:35.698Z,38.49
2022-07-28T12:37:12.592Z,39.35
2022-07-28T12:39:43.023Z,40.00
2022-07-28T12:42:12.864Z,40.66
2022-07-28T12:44:44.081Z,40.40
2022-07-28T12:47:14.391Z,39.28
2022-07-28T12:49:44.829Z,38.62
2022-07-28T12:52:22.311Z,39.54
2022-07-28T12:54:55.226Z,39.92
2022-07-28T12:57:50.538Z,39.57
2022-07-28T13:00:31.906Z,37.99
2022-07-28T13:03:19.581Z,36.49
2022-07-28T13:06:03.425Z,37.22
2022-07-28T13:08:44.008Z,38.34
2022-07-28T13:14:12.946Z,36.83
2022-07-28T13:16:41.206Z,36.56
2022-07-28T13:19:21.538Z,35.59
2022-07-28T13:22:01.690Z,35.93
2022-07-28T13:24:31.593Z,37.02
2022-07-28T13:27:01.754Z,37.92
2022-07-28T13:29:34.889Z,37.93
2022-07-28T13:32:03.017Z,36.95
2022-07-28T13:34:31.110Z,36.30
2022-07-28T13:36:59.226Z,36.82
2022-07-28T13:39:27.995Z,37.82
2022-07-28T13:41:58.178Z,38.37
2022-07-28T13:44:28.878Z,37.86
2022-07-28T13:46:59.736Z,36.89
2022-07-28T13:49:33.297Z,37.04
2022-07-28T13:52:02.416Z,37.22
2022-07-28T13:54:30.417Z,36.64
2022-07-28T13:57:14.216Z,36.24
2022-07-28T13:59:43.829Z,36.29
2022-07-28T14:02:15.159Z,36.24
2022-07-28T14:04:49.002Z,36.91
2022-07-28T14:07:20.826Z,36.77
2022-07-28T14:09:52.805Z,37.01
2022-07-28T14:12:22.490Z,37.47
2022-07-28T14:14:53.084Z,37.69
2022-07-28T14:17:43.718Z,37.27
2022-07-28T14:20:12.302Z,37.01
2022-07-28T14:22:40.398Z,36.58
2022-07-28T14:25:09.000Z,36.18
2022-07-28T14:27:38.031Z,35.77
2022-07-28T14:30:07.047Z,35.89
2022-07-28T14:32:38.758Z,36.25
2022-07-28T14:35:07.411Z,36.85
2022-07-28T14:37:55.031Z,36.89
2022-07-28T14:40:24.187Z,37.17
2022-07-28T14:42:52.099Z,36.95
2022-07-28T14:45:20.045Z,36.94
2022-07-28T14:47:47.966Z,36.08
2022-07-28T14:50:15.951Z,33.73
2022-07-28T14:52:45.053Z,32.69
2022-07-28T14:55:13.834Z,31.62
2022-07-28T14:57:50.231Z,31.29
2022-07-28T15:00:22.206Z,31.90
2022-07-28T15:02:51.953Z,32.47
2022-07-28T15:05:21.111Z,32.63
2022-07-28T15:07:52.357Z,32.98
2022-07-28T15:10:21.548Z,34.27
2022-07-28T15:12:50.919Z,35.79
2022-07-28T15:15:21.388Z,36.43
2022-07-28T15:17:49.241Z,35.99
2022-07-28T15:20:17.227Z,35.41
2022-07-28T15:22:45.116Z,35.89
2022-07-28T15:25:13.099Z,37.53
2022-07-28T15:27:45.625Z,39.33
2022-07-28T15:30:14.395Z,41.15
2022-07-28T15:32:54.591Z,41.44
2022-07-28T15:35:26.195Z,42.04
2022-07-28T15:37:55.068Z,42.93
2022-07-28T15:40:23.490Z,41.91
2022-07-28T15:42:53.232Z,41.43
2022-07-28T15:45:21.197Z,40.45
2022-07-28T15:47:49.222Z,38.79
2022-07-28T15:50:17.335Z,37.79
2022-07-28T15:52:45.396Z,36.45
2022-07-28T15:55:13.436Z,34.85
2022-07-28T15:57:41.302Z,33.67
2022-07-28T16:00:09.871Z,32.94
2022-07-28T16:02:37.775Z,32.28
2022-07-28T16:05:06.089Z,31.84
2022-07-28T16:07:35.361Z,31.45
2022-07-28T16:10:04.711Z,31.61
2022-07-28T16:12:33.646Z,31.46
2022-07-28T16:15:02.029Z,31.13
2022-07-28T16:17:30.022Z,30.66
2022-07-28T16:20:02.426Z,30.16
2022-07-28T16:22:30.783Z,30.01
2022-07-28T16:24:58.662Z,29.85
2022-07-28T16:27:26.540Z,29.45
2022-07-28T16:29:54.793Z,29.18
2022-07-28T16:32:22.802Z,29.03
2022-07-28T16:34:54.964Z,28.96
2022-07-28T16:37:22.961Z,28.97
2022-07-28T16:39:51.041Z,28.88
2022-07-28T16:42:19.036Z,28.83
2022-07-28T16:44:47.575Z,28.88
2022-07-28T16:47:16.009Z,28.90
2022-07-28T16:49:46.199Z,28.77
2022-07-28T16:52:15.519Z,28.61
2022-07-28T16:54:43.767Z,28.47
2022-07-28T16:57:12.557Z,28.21
2022-07-28T16:59:48.732Z,28.10
2022-07-28T17:02:19.441Z,28.04
2022-07-28T17:04:47.889Z,27.94
2022-07-28T17:07:15.898Z,27.86
2022-07-28T17:09:44.645Z,27.71
2022-07-28T17:12:13.470Z,27.72
2022-07-28T17:14:41.438Z,27.73
2022-07-28T17:17:09.601Z,27.61
2022-07-28T17:19:41.996Z,27.47
2022-07-28T17:22:15.264Z,27.31
2022-07-28T17:24:43.252Z,27.15
2022-07-28T17:29:59.066Z,26.82
2022-07-28T17:32:26.976Z,26.68
2022-07-28T17:34:55.770Z,26.52
2022-07-28T17:37:23.605Z,26.35
2022-07-28T17:39:51.741Z,26.20
2022-07-28T17:42:19.839Z,26.10
2022-07-28T17:44:48.883Z,25.94
2022-07-28T17:47:17.105Z,25.72
2022-07-28T17:49:45.726Z,25.58
2022-07-28T17:52:13.711Z,25.46
2022-07-28T17:55:00.718Z,25.25
2022-07-28T17:57:31.018Z,25.03
2022-07-28T18:00:06.864Z,24.84
2022-07-28T18:02:34.780Z,24.66
2022-07-28T18:05:02.704Z,24.48
2022-07-28T18:07:30.762Z,24.24
2022-07-28T18:10:24.532Z,24.09
2022-07-28T18:12:52.948Z,23.92
2022-07-28T18:15:20.854Z,23.74
2022-07-28T18:17:55.230Z,23.59
2022-07-28T18:20:24.483Z,23.35
2022-07-28T18:22:52.477Z,23.21
2022-07-28T18:25:21.355Z,22.97
2022-07-28T18:27:49.426Z,22.80
2022-07-28T18:30:18.215Z,22.64
2022-07-28T18:32:46.181Z,22.54
2022-07-28T18:35:14.945Z,22.35
2022-07-28T18:37:45.962Z,22.21
2022-07-28T18:40:16.403Z,22.12
2022-07-28T18:42:46.452Z,22.01
2022-07-28T18:45:15.503Z,21.84
2022-07-28T18:47:46.209Z,21.64
2022-07-28T18:50:30.462Z,21.48
2022-07-28T18:53:00.090Z,21.33
2022-07-28T18:55:28.147Z,21.19
2022-07-28T18:57:56.378Z,21.17
2022-07-28T19:00:24.432Z,21.10
2022-07-28T19:02:52.864Z,20.98
2022-07-28T19:05:20.910Z,20.87
2022-07-28T19:07:48.877Z,20.75
2022-07-28T19:10:16.821Z,20.64
2022-07-28T19:12:47.088Z,20.55
2022-07-28T19:15:15.051Z,20.48
2022-07-28T19:17:42.976Z,20.42
2022-07-28T19:20:12.122Z,20.25
2022-07-28T19:22:40.569Z,20.14
2022-07-28T19:25:09.031Z,19.93
2022-07-28T19:27:37.426Z,19.89
2022-07-28T19:30:07.582Z,19.88
2022-07-28T19:32:35.859Z,19.83
2022-07-28T19:35:04.286Z,19.85
2022-07-28T19:37:32.463Z,19.83
2022-07-28T19:40:00.254Z,19.75
2022-07-28T19:42:30.524Z,19.64
2022-07-28T19:44:58.466Z,19.50
2022-07-28T19:47:26.438Z,19.45
2022-07-28T19:49:54.346Z,19.42
2022-07-28T19:52:24.157Z,19.43
2022-07-28T19:54:52.876Z,19.42
2022-07-28T19:57:23.298Z,19.36
2022-07-28T19:59:51.164Z,19.30
2022-07-28T20:02:19.175Z,19.18
2022-07-28T20:04:47.176Z,19.03
2022-07-28T20:07:15.309Z,18.88
2022-07-28T20:09:43.218Z,18.79
2022-07-28T20:12:11.256Z,18.75
2022-07-28T20:14:39.186Z,18.75
2022-07-28T20:17:07.494Z,18.71
2022-07-28T20:19:35.527Z,18.65
2022-07-28T20:22:03.500Z,18.61
2022-07-28T20:24:31.433Z,18.59
2022-07-28T20:27:01.207Z,18.55
2022-07-28T20:29:29.086Z,18.45
2022-07-28T20:31:56.978Z,18.36
2022-07-28T20:34:24.898Z,18.33
2022-07-28T20:36:54.506Z,18.30
2022-07-28T20:39:43.749Z,18.20
2022-07-28T20:42:10.847Z,18.06
2022-07-28T20:44:38.969Z,17.92
2022-07-28T20:47:07.053Z,17.84
2022-07-28T20:49:34.976Z,17.76
2022-07-28T20:52:03.671Z,17.70
2022-07-28T20:54:32.476Z,17.69
2022-07-28T20:57:00.555Z,17.69
2022-07-28T20:59:28.474Z,17.68
2022-07-28T21:01:56.908Z,17.65
2022-07-28T21:04:26.663Z,17.58
2022-07-28T21:07:01.740Z,17.52
2022-07-28T21:09:30.308Z,17.50
2022-07-28T21:11:58.215Z,17.50
2022-07-28T21:14:26.204Z,17.52
2022-07-28T21:16:55.114Z,17.46
2022-07-28T21:19:23.081Z,17.38
2022-07-28T21:21:51.270Z,17.30
2022-07-28T21:24:19.403Z,17.21
2022-07-28T21:26:49.886Z,17.10
2022-07-28T21:32:04.100Z,16.86
2022-07-28T21:34:34.989Z,16.87
2022-07-28T21:37:06.915Z,16.88
2022-07-28T21:39:36.045Z,16.86
2022-07-28T21:42:07.780Z,16.83
2022-07-28T21:44:37.607Z,16.78
2022-07-28T21:47:05.912Z,16.70
2022-07-28T21:49:34.074Z,16.61
2022-07-28T21:52:02.091Z,16.52
2022-07-28T21:54:30.305Z,16.40
2022-07-28T21:56:58.306Z,16.34
2022-07-28T21:59:26.300Z,16.38
2022-07-28T22:01:54.233Z,16.41
2022-07-28T22:04:22.389Z,16.44
2022-07-28T22:06:50.839Z,16.46
2022-07-28T22:09:18.746Z,16.44
2022-07-28T22:11:46.590Z,16.39
2022-07-28T22:14:14.750Z,16.36
2022-07-28T22:16:42.885Z,16.34
2022-07-28T22:19:12.358Z,16.28
2022-07-28T22:21:40.275Z,16.25
2022-07-28T22:24:08.916Z,16.23
2022-07-28T22:26:37.061Z,16.21
2022-07-28T22:29:05.286Z,16.21
2022-07-28T22:31:33.273Z,16.19
2022-07-28T22:34:01.408Z,16.16
2022-07-28T22:36:29.416Z,16.15
2022-07-28T22:38:57.412Z,16.10
2022-07-28T22:41:25.579Z,16.05
2022-07-28T22:43:54.686Z,15.99
2022-07-28T22:46:22.808Z,16.00
2022-07-28T22:48:51.040Z,16.00
2022-07-28T22:51:19.089Z,16.00
2022-07-28T22:53:46.980Z,16.00
2022-07-28T22:56:15.009Z,15.98
2022-07-28T22:58:43.180Z,16.00
2022-07-28T23:01:11.370Z,16.06
2022-07-28T23:09:26.981Z,15.98
2022-07-28T23:11:55.599Z,15.92
2022-07-28T23:14:24.333Z,15.86
2022-07-28T23:16:52.127Z,15.82
2022-07-28T23:19:20.042Z,15.77
2022-07-28T23:21:48.036Z,15.73
2022-07-28T23:24:16.462Z,15.69
2022-07-28T23:26:44.989Z,15.61
2022-07-28T23:29:12.946Z,15.59
2022-07-28T23:31:40.978Z,15.58
2022-07-28T23:34:09.157Z,15.57
2022-07-28T23:36:37.104Z,15.54
2022-07-28T23:39:05.021Z,15.50
2022-07-28T23:41:32.943Z,15.43
2022-07-28T23:44:00.857Z,15.37
2022-07-28T23:46:28.905Z,15.32
2022-07-28T23:48:56.847Z,15.34
2022-07-28T23:51:46.894Z,15.37
2022-07-28T23:54:14.581Z,15.38
2022-07-28T23:56:43.612Z,15.34
2022-07-28T23:59:13.992Z,15.30
